TimeEDT,TemperatureF,Dew PointF,Humidity,Sea Level PressureIn,VisibilityMPH,Wind Direction,Wind SpeedMPH,Gust SpeedMPH,PrecipitationIn,Events,Conditions,WindDirDegrees,DateUTC
12:14 AM,68.0,66.2,94,29.72,10.0,South,8.1,-,N/A,,Overcast,180,2013-07-10 04:14:00
12:35 AM,68.0,66.2,94,29.71,10.0,South,8.1,-,N/A,,Overcast,180,2013-07-10 04:35:00
12:54 AM,68.0,66.2,94,29.70,10.0,South,6.9,-,N/A,,Overcast,170,2013-07-10 04:54:00
1:15 AM,68.0,66.2,94,29.69,10.0,South,9.2,16.1,N/A,,Overcast,180,2013-07-10 05:15:00
1:35 AM,68.0,66.2,94,29.68,7.0,South,11.5,16.1,N/A,Rain,Rain,180,2013-07-10 05:35:00
1:54 AM,68.0,66.2,94,29.67,5.0,South,12.7,-,N/A,,Heavy Drizzle,180,2013-07-10 05:54:00
2:15 AM,68.0,66.2,94,29.66,5.0,South,10.4,-,N/A,Rain,Rain,190,2013-07-10 06:15:00
2:35 AM,68.0,66.2,94,29.65,4.0,SSW,6.9,-,N/A,,Drizzle,200,2013-07-10 06:35:00
2:54 AM,68.0,66.2,94,29.64,4.0,SSW,10.4,-,N/A,,Drizzle,210,2013-07-10 06:54:00
3:15 AM,68.0,66.2,94,29.64,5.0,WSW,8.1,-,N/A,,Overcast,240,2013-07-10 07:15:00
3:34 AM,68.0,66.2,94,29.64,5.0,West,15.0,-,N/A,,Overcast,260,2013-07-10 07:34:00
3:54 AM,68.0,66.2,94,29.65,3.0,West,10.4,20.7,N/A,,Overcast,260,2013-07-10 07:54:00
4:15 AM,66.2,66.2,100,29.66,7.0,West,13.8,19.6,N/A,,Overcast,270,2013-07-10 08:15:00
4:34 AM,66.2,66.2,100,29.66,4.0,West,18.4,25.3,N/A,,Overcast,270,2013-07-10 08:34:00
4:55 AM,66.2,64.4,94,29.67,7.0,West,18.4,28.8,N/A,,Overcast,280,2013-07-10 08:55:00
5:14 AM,66.2,64.4,94,29.68,10.0,West,16.1,21.9,N/A,,Overcast,280,2013-07-10 09:14:00
5:34 AM,66.2,64.4,94,29.69,7.0,West,12.7,-,N/A,,Overcast,280,2013-07-10 09:34:00
5:54 AM,64.4,64.4,100,29.69,10.0,West,15.0,21.9,N/A,,Overcast,270,2013-07-10 09:54:00
6:14 AM,64.4,62.6,94,29.71,5.0,West,18.4,25.3,N/A,,Overcast,280,2013-07-10 10:14:00
6:35 AM,64.4,62.6,94,29.71,10.0,West,17.3,26.5,N/A,,Overcast,270,2013-07-10 10:35:00
6:54 AM,62.6,62.6,100,29.72,2.0,West,19.6,25.3,N/A,,Overcast,280,2013-07-10 10:54:00
7:14 AM,62.6,60.8,94,29.72,2.0,West,20.7,27.6,N/A,,Overcast,270,2013-07-10 11:14:00
7:35 AM,60.8,60.8,100,29.73,3.0,West,18.4,26.5,N/A,,Overcast,270,2013-07-10 11:35:00
7:54 AM,60.8,60.8,100,29.73,7.0,West,17.3,24.2,N/A,,Overcast,280,2013-07-10 11:54:00
8:15 AM,60.8,59.0,94,29.74,10.0,West,16.1,20.7,N/A,,Overcast,280,2013-07-10 12:15:00
8:35 AM,60.8,59.0,94,29.74,7.0,West,13.8,23.0,N/A,,Overcast,280,2013-07-10 12:35:00
8:54 AM,60.8,59.0,94,29.75,3.0,West,18.4,-,N/A,,Overcast,280,2013-07-10 12:54:00
9:15 AM,60.8,59.0,94,29.76,7.0,West,16.1,21.9,N/A,,Overcast,280,2013-07-10 13:15:00
9:34 AM,60.8,57.2,88,29.77,4.0,WNW,12.7,21.9,N/A,,Overcast,300,2013-07-10 13:34:00
9:55 AM,60.8,59.0,94,29.77,4.0,WNW,13.8,20.7,N/A,,Overcast,290,2013-07-10 13:55:00
10:14 AM,60.8,59.0,94,29.78,10.0,WNW,15.0,21.9,N/A,,Overcast,290,2013-07-10 14:14:00
10:35 AM,60.8,59.0,94,29.79,10.0,WNW,15.0,23.0,N/A,,Overcast,290,2013-07-10 14:35:00
10:54 AM,62.6,59.0,88,29.78,10.0,WNW,12.7,21.9,N/A,,Overcast,300,2013-07-10 14:54:00
11:14 AM,62.6,59.0,88,29.79,10.0,WNW,17.3,24.2,N/A,,Overcast,290,2013-07-10 15:14:00
11:35 AM,62.6,59.0,88,29.79,10.0,WNW,13.8,25.3,N/A,,Overcast,300,2013-07-10 15:35:00
11:54 AM,64.4,59.0,83,29.80,10.0,WNW,12.7,21.9,N/A,,Overcast,300,2013-07-10 15:54:00
12:15 PM,64.4,59.0,83,29.80,10.0,WNW,17.3,23.0,N/A,,Overcast,290,2013-07-10 16:15:00
12:34 PM,66.2,59.0,78,29.81,10.0,WNW,17.3,24.2,N/A,,Overcast,290,2013-07-10 16:34:00
12:55 PM,66.2,57.2,73,29.83,10.0,WNW,17.3,25.3,N/A,,Overcast,300,2013-07-10 16:55:00
1:14 PM,64.4,57.2,77,29.84,10.0,WNW,17.3,26.5,N/A,,Overcast,290,2013-07-10 17:14:00
1:35 PM,64.4,57.2,77,29.85,10.0,WNW,17.3,26.5,N/A,,Overcast,300,2013-07-10 17:35:00
1:55 PM,64.4,57.2,77,29.85,10.0,West,18.4,26.5,N/A,,Overcast,280,2013-07-10 17:55:00
2:14 PM,64.4,57.2,77,29.86,10.0,WNW,15.0,24.2,N/A,,Overcast,290,2013-07-10 18:14:00
2:35 PM,64.4,57.2,77,29.87,10.0,WNW,11.5,24.2,N/A,,Overcast,300,2013-07-10 18:35:00
2:54 PM,66.2,57.2,73,29.87,10.0,WNW,12.7,20.7,N/A,,Overcast,300,2013-07-10 18:54:00
3:14 PM,66.2,57.2,73,29.87,10.0,WNW,11.5,24.2,N/A,,Overcast,300,2013-07-10 19:14:00
3:35 PM,66.2,57.2,73,29.87,10.0,WNW,18.4,26.5,N/A,,Mostly Cloudy,290,2013-07-10 19:35:00
3:55 PM,66.2,55.4,68,29.87,10.0,NW,17.3,27.6,N/A,,Scattered Clouds,310,2013-07-10 19:55:00
4:14 PM,66.2,57.2,73,29.87,10.0,NW,12.7,23.0,N/A,,Mostly Cloudy,310,2013-07-10 20:14:00
4:34 PM,68.0,55.4,64,29.87,10.0,WNW,19.6,24.2,N/A,,Mostly Cloudy,300,2013-07-10 20:34:00
4:55 PM,68.0,55.4,64,29.87,10.0,WNW,10.4,24.2,N/A,,Overcast,300,2013-07-10 20:55:00
5:14 PM,66.2,55.4,68,29.87,10.0,NW,12.7,21.9,N/A,,Mostly Cloudy,310,2013-07-10 21:14:00
5:34 PM,68.0,55.4,64,29.87,10.0,WNW,15.0,23.0,N/A,,Mostly Cloudy,300,2013-07-10 21:34:00
5:55 PM,68.0,55.4,64,29.88,10.0,WNW,10.4,21.9,N/A,,Scattered Clouds,300,2013-07-10 21:55:00
6:15 PM,68.0,55.4,64,29.88,10.0,NW,15.0,21.9,N/A,,Scattered Clouds,310,2013-07-10 22:15:00
6:34 PM,69.8,55.4,60,29.88,10.0,WNW,13.8,21.9,N/A,,Overcast,300,2013-07-10 22:34:00
6:55 PM,66.2,55.4,68,29.89,10.0,WNW,8.1,16.1,N/A,,Mostly Cloudy,290,2013-07-10 22:55:00
7:15 PM,66.2,53.6,64,29.90,10.0,WNW,12.7,18.4,N/A,,Mostly Cloudy,300,2013-07-10 23:15:00
7:34 PM,68.0,53.6,60,29.90,10.0,WNW,12.7,23.0,N/A,,Scattered Clouds,290,2013-07-10 23:34:00
7:55 PM,66.2,53.6,64,29.90,10.0,WNW,15.0,23.0,N/A,,Clear,300,2013-07-10 23:55:00
8:15 PM,66.2,53.6,64,29.90,10.0,WNW,9.2,23.0,N/A,,Clear,290,2013-07-11 00:15:00
8:34 PM,66.2,53.6,64,29.90,10.0,West,12.7,-,N/A,,Clear,280,2013-07-11 00:34:00
8:55 PM,64.4,53.6,68,29.91,10.0,WNW,8.1,-,N/A,,Scattered Clouds,290,2013-07-11 00:55:00
9:14 PM,64.4,53.6,68,29.91,10.0,West,9.2,-,N/A,,Scattered Clouds,270,2013-07-11 01:14:00
9:34 PM,62.6,53.6,72,29.92,10.0,West,8.1,-,N/A,,Scattered Clouds,270,2013-07-11 01:34:00
9:55 PM,62.6,53.6,72,29.93,10.0,West,4.6,-,N/A,,Scattered Clouds,270,2013-07-11 01:55:00
10:14 PM,60.8,53.6,77,29.94,10.0,West,3.5,-,N/A,,Clear,270,2013-07-11 02:14:00
10:35 PM,59.0,53.6,82,29.94,10.0,West,5.8,-,N/A,,Clear,280,2013-07-11 02:35:00
10:55 PM,59.0,53.6,82,29.94,10.0,West,4.6,-,N/A,,Clear,280,2013-07-11 02:55:00
11:14 PM,59.0,53.6,82,29.95,10.0,West,3.5,-,N/A,,Clear,260,2013-07-11 03:14:00
11:35 PM,57.2,53.6,88,29.95,10.0,Calm,Calm,-,N/A,,Clear,0,2013-07-11 03:35:00
11:54 PM,55.4,53.6,94,29.95,10.0,Calm,Calm,-,N/A,,Clear,0,2013-07-11 03:54:00